Time;durP1;ratioP1;P1;durP2;ratioP2;P2;SDS_P1;SDS_P2;PMS_P1;PMS_P2;Temp;Humidity;BMP_temperature;BMP_pressure;BME280_temperature;BME280_humidity;BME280_pressure;Samples;Min_cycle;Max_cycle;Signal;HPM_P1;HPM_P2
2021/01/15 00:01:37;;;;;;;;;;;;;;;;;;;;;
2021/01/15 00:04:24;;;;;;;17.08;10.63;;;1.70;99.90;;;;;;4891287;29;20270;-85
2021/01/15 00:07:23;;;;;;;10.20;9.30;;;1.60;99.90;;;;;;4893906;29;20218;-87
2021/01/15 00:19:35;;;;;;;8.55;7.75;;;1.60;99.90;;;;;;4879486;29;20308;-83
2021/01/15 00:25:17;;;;;;;10.20;8.88;;;1.60;99.90;;;;;;4895889;29;20290;-83
2021/01/15 00:28:06;;;;;;;11.00;9.80;;;1.60;99.90;;;;;;4896573;29;20203;-84
2021/01/15 00:30:45;;;;;;;11.60;9.38;;;1.60;99.90;;;;;;4894315;29;20243;-83
2021/01/15 00:33:26;;;;;;;9.88;7.90;;;1.60;99.90;;;;;;4895635;29;20223;-83
2021/01/15 00:36:04;;;;;;;9.50;7.65;;;1.60;99.90;;;;;;4896614;29;20220;-84
2021/01/15 00:38:42;;;;;;;;;;;;;;;;;;;;;
2021/01/15 00:44:16;;;;;;;11.57;7.10;;;1.60;99.90;;;;;;4894823;29;20240;-84
2021/01/15 01:03:16;;;;;;;;;;;;;;;;;;;;;
2021/01/15 01:15:55;;;;;;;10.80;8.63;;;1.50;99.90;;;;;;4786045;29;20207;-84
2021/01/15 01:18:32;;;;;;;9.93;8.50;;;1.50;99.90;;;;;;4879349;29;20304;-84
2021/01/15 01:21:40;;;;;;;8.88;8.07;;;1.50;99.90;;;;;;4896625;29;20656;-84
2021/01/15 01:28:08;;;;;;;7.43;6.30;;;1.40;99.90;;;;;;4827258;29;20215;-84
2021/01/15 01:30:38;;;;;;;8.38;5.88;;;1.40;99.90;;;;;;4863032;29;20235;-84
2021/01/15 02:02:44;;;;;;;4.55;4.15;;;1.40;99.90;;;;;;4720803;30;20238;-85
2021/01/15 02:09:22;;;;;;;5.22;4.10;;;1.40;99.90;;;;;;4809036;29;20217;-84
2021/01/15 03:12:44;;;;;;;3.60;3.30;;;1.00;99.90;;;;;;4754386;29;20222;-84
2021/01/15 04:05:21;;;;;;;;;;;;;;;;;;;;;
2021/01/15 04:34:46;;;;;;;3.10;2.80;;;0.20;99.90;;;;;;4803761;30;20254;-83
2021/01/15 04:47:01;;;;;;;3.40;3.10;;;0.10;99.90;;;;;;4687765;30;20237;-83
2021/01/15 04:50:26;;;;;;;;;;;;;;;;;;;;;
2021/01/15 05:28:37;;;;;;;;;;;;;;;;;;;;;
2021/01/15 05:51:46;;;;;;;4.78;3.92;;;-0.60;99.90;;;;;;4813766;29;20267;-83
2021/01/15 05:54:32;;;;;;;4.65;4.28;;;-0.70;99.90;;;;;;4898829;29;20190;-83
2021/01/15 05:57:11;;;;;;;5.53;5.03;;;-0.60;99.90;;;;;;4899780;29;20223;-83
2021/01/15 05:59:40;;;;;;;4.78;4.35;;;-0.70;99.90;;;;;;4899072;29;20215;-83
2021/01/15 06:02:52;;;;;;;;;;;;;;;;;;;;;
2021/01/15 06:47:17;;;;;;;5.00;4.50;;;-0.90;99.90;;;;;;4783772;29;20218;-85
2021/01/15 06:50:06;;;;;;;7.60;5.40;;;-0.90;99.90;;;;;;4787411;29;20607;-85
2021/01/15 06:56:30;;;;;;;;;;;;;;;;;;;;;
2021/01/15 07:02:31;;;;;;;6.25;5.70;;;-0.90;99.90;;;;;;4764174;30;20260;-84
2021/01/15 07:05:21;;;;;;;8.65;6.15;;;-1.00;99.90;;;;;;4813250;29;20778;-85
2021/01/15 07:08:13;;;;;;;7.93;4.95;;;-0.90;99.90;;;;;;4883364;29;20245;-84
2021/01/15 07:17:58;;;;;;;6.47;5.38;;;-0.80;99.90;;;;;;4685170;29;20327;-84
2021/01/15 07:28:20;;;;;;;;;;;;;;;;;;;;;
2021/01/15 07:35:39;;;;;;;;;;;;;;;;;;;;;
2021/01/15 07:38:27;;;;;;;;;;;;;;;;;;;;;
2021/01/15 07:44:42;;;;;;;7.22;6.53;;;-0.80;99.90;;;;;;4802344;29;21020;-84
2021/01/15 08:00:38;;;;;;;6.30;5.70;;;-0.60;99.90;;;;;;4719340;30;20247;-85
2021/01/15 08:31:57;;;;;;;;;;;;;;;;;;;;;
2021/01/15 08:35:13;;;;;;;9.65;6.57;;;0.20;99.90;;;;;;4828887;29;20269;-84
2021/01/15 09:13:53;;;;;;;;;;;;;;;;;;;;;
2021/01/15 14:30:02;;;;;;;12.02;10.60;;;7.80;65.70;;;;;;4414121;23;21029;-88
2021/01/15 14:32:29;;;;;;;11.57;10.32;;;7.50;67.60;;;;;;4882363;29;20299;-86
2021/01/15 14:35:04;;;;;;;11.73;9.77;;;7.40;68.20;;;;;;4883898;29;20342;-89
2021/01/15 16:10:54;;;;;;;17.65;14.63;;;1.00;99.90;;;;;;4905321;29;20484;-86
2021/01/15 16:26:57;;;;;;;13.38;10.07;;;0.90;99.90;;;;;;4728283;30;20263;-84
2021/01/15 16:42:44;;;;;;;16.95;13.55;;;0.90;99.90;;;;;;4763756;29;20749;-87
2021/01/15 17:02:23;;;;;;;18.40;13.48;;;1.10;99.90;;;;;;4820966;29;20300;-87
2021/01/15 17:14:56;;;;;;;16.08;12.80;;;1.20;99.90;;;;;;4617564;31;20237;-86
2021/01/15 17:17:35;;;;;;;13.15;11.43;;;1.10;99.90;;;;;;4739649;30;20219;-86
2021/01/15 17:20:12;;;;;;;10.18;8.15;;;0.90;99.90;;;;;;4820394;29;20294;-85
2021/01/15 17:27:06;;;;;;;;;;;;;;;;;;;;;
2021/01/15 17:33:18;;;;;;;9.52;8.68;;;0.90;99.90;;;;;;4748061;29;20223;-86
2021/01/15 17:35:58;;;;;;;8.50;7.40;;;0.80;99.90;;;;;;4901495;29;20231;-86
2021/01/15 17:38:44;;;;;;;8.75;6.75;;;0.80;99.90;;;;;;4902091;29;20233;-87
2021/01/15 17:41:24;;;;;;;9.45;8.10;;;0.80;99.90;;;;;;4901085;29;20235;-87
2021/01/15 17:43:52;;;;;;;10.43;8.25;;;0.80;99.90;;;;;;4902882;29;20215;-87
2021/01/15 17:56:53;;;;;;;;;;;;;;;;;;;;;
2021/01/15 18:00:11;;;;;;;;;;;;;;;;;;;;;
2021/01/15 18:03:12;;;;;;;;;;;;;;;;;;;;;
2021/01/15 18:15:44;;;;;;;8.70;7.07;;;0.80;99.90;;;;;;4872197;29;20260;-85
2021/01/15 18:45:09;;;;;;;7.60;5.70;;;0.90;99.90;;;;;;4828539;29;20212;-84
2021/01/15 18:47:41;;;;;;;8.38;7.32;;;0.80;99.90;;;;;;4902655;29;20235;-84
2021/01/15 18:50:11;;;;;;;8.27;6.47;;;0.80;99.90;;;;;;4918111;29;20809;-84
2021/01/15 18:52:37;;;;;;;9.13;8.15;;;0.90;99.90;;;;;;4918906;29;20259;-84
2021/01/15 18:55:04;;;;;;;8.23;6.85;;;0.90;99.90;;;;;;4917602;29;20234;-84
2021/01/15 18:57:32;;;;;;;7.30;6.10;;;0.90;99.90;;;;;;4914409;29;20217;-84
2021/01/15 18:59:58;;;;;;;8.32;6.53;;;0.80;99.90;;;;;;4914440;29;20239;-83
2021/01/15 19:02:25;;;;;;;8.88;7.93;;;0.80;99.90;;;;;;4913695;29;20214;-84
2021/01/15 19:04:52;;;;;;;11.25;9.07;;;0.90;99.90;;;;;;4913857;29;20235;-84
2021/01/15 19:07:19;;;;;;;10.13;9.13;;;0.90;99.90;;;;;;4913379;29;20219;-84
2021/01/15 19:09:46;;;;;;;9.05;8.13;;;0.90;99.90;;;;;;4914894;29;20222;-84
2021/01/15 19:12:12;;;;;;;10.13;8.10;;;0.90;99.90;;;;;;4913911;29;20203;-83
2021/01/15 19:14:40;;;;;;;7.95;7.25;;;0.90;99.90;;;;;;4914566;29;20251;-84
2021/01/15 19:17:06;;;;;;;10.63;9.52;;;1.00;99.90;;;;;;4914425;29;20212;-83
2021/01/15 19:19:33;;;;;;;9.93;8.75;;;1.00;99.90;;;;;;4914130;29;20594;-83
2021/01/15 19:21:59;;;;;;;10.15;8.15;;;1.10;99.90;;;;;;4904461;29;20214;-83
2021/01/15 19:24:26;;;;;;;9.98;9.05;;;1.00;99.90;;;;;;4898589;29;20201;-83
2021/01/15 19:26:53;;;;;;;8.88;8.05;;;1.00;99.90;;;;;;4910263;29;20211;-83
2021/01/15 19:29:19;;;;;;;9.18;8.35;;;1.10;99.90;;;;;;4907139;29;20863;-84
2021/01/15 19:31:50;;;;;;;7.68;6.88;;;1.10;99.90;;;;;;4897135;29;20228;-83
2021/01/15 19:34:16;;;;;;;15.70;8.50;;;1.00;99.90;;;;;;4904438;29;20192;-83
2021/01/15 19:36:43;;;;;;;9.23;8.27;;;1.10;99.90;;;;;;4904115;29;20208;-83
2021/01/15 19:39:09;;;;;;;8.35;7.22;;;1.00;99.90;;;;;;4912954;29;20218;-83
2021/01/15 19:41:40;;;;;;;10.63;8.63;;;1.00;99.90;;;;;;4911748;29;20235;-82
2021/01/15 19:44:07;;;;;;;10.13;9.05;;;1.00;99.90;;;;;;4913663;29;20215;-83
2021/01/15 19:46:36;;;;;;;8.57;7.78;;;1.00;99.90;;;;;;4916891;29;20211;-84
2021/01/15 19:49:02;;;;;;;8.50;7.55;;;1.10;99.90;;;;;;4915589;29;20212;-83
2021/01/15 19:51:28;;;;;;;9.25;8.27;;;1.10;99.90;;;;;;4914442;29;20238;-84
2021/01/15 19:54:04;;;;;;;9.73;7.88;;;1.10;99.90;;;;;;4912520;29;20211;-83
2021/01/15 19:57:03;;;;;;;7.95;6.78;;;1.10;99.90;;;;;;4909812;29;20200;-84
2021/01/15 20:00:09;;;;;;;6.93;6.22;;;1.10;99.90;;;;;;4909906;29;20662;-83
2021/01/15 20:02:50;;;;;;;9.80;7.75;;;1.10;99.90;;;;;;4863565;29;20215;-84
2021/01/15 20:11:22;;;;;;;9.50;8.50;;;1.20;99.90;;;;;;4777945;29;20235;-84
2021/01/15 20:14:31;;;;;;;12.88;9.60;;;1.20;99.90;;;;;;4901382;29;20211;-84
2021/01/15 20:23:54;;;;;;;;;;;;;;;;;;;;;
2021/01/15 20:26:21;;;;;;;10.30;9.25;;;1.20;99.90;;;;;;4895054;29;20271;-84
2021/01/15 20:29:31;;;;;;;10.40;9.35;;;1.40;99.90;;;;;;4912674;29;20223;-83
2021/01/15 20:35:14;;;;;;;10.95;8.93;;;1.40;99.90;;;;;;4906118;29;20226;-83
2021/01/15 20:41:31;;;;;;;13.20;11.60;;;1.40;99.90;;;;;;4907208;29;20616;-85
2021/01/15 20:55:38;;;;;;;14.50;13.02;;;1.20;99.90;;;;;;4719360;30;20232;-86
2021/01/15 21:04:54;;;;;;;17.30;11.00;;;1.00;99.90;;;;;;4742482;30;20224;-84
2021/01/15 21:08:06;;;;;;;14.80;10.43;;;0.70;99.90;;;;;;4781801;30;21006;-83
2021/01/15 21:33:02;;;;;;;11.18;9.90;;;0.70;99.90;;;;;;4906564;29;20270;-83
2021/01/15 21:41:57;;;;;;;14.70;11.55;;;0.80;99.90;;;;;;4797127;29;20277;-83
2021/01/15 21:44:23;;;;;;;12.75;10.00;;;0.70;99.90;;;;;;4894786;29;20223;-83
2021/01/15 21:46:49;;;;;;;11.82;10.68;;;0.60;99.90;;;;;;4895623;29;20218;-83
2021/01/15 21:49:16;;;;;;;16.00;11.35;;;0.70;99.90;;;;;;4915498;29;20215;-83
2021/01/15 21:51:44;;;;;;;12.75;9.88;;;0.70;99.90;;;;;;4916441;29;20294;-84
2021/01/15 21:54:11;;;;;;;11.60;10.30;;;0.70;99.90;;;;;;4916268;29;20211;-83
2021/01/15 21:56:37;;;;;;;16.67;11.68;;;0.60;99.90;;;;;;4915015;29;20662;-84
2021/01/15 21:59:05;;;;;;;14.82;11.65;;;0.50;99.90;;;;;;4915037;29;20215;-83
2021/01/15 22:01:31;;;;;;;17.70;12.65;;;0.50;99.90;;;;;;4913632;29;20239;-83
2021/01/15 22:03:57;;;;;;;16.40;12.32;;;0.60;99.90;;;;;;4914760;29;20211;-84
2021/01/15 22:06:23;;;;;;;11.50;10.40;;;0.70;99.90;;;;;;4914824;29;20215;-83
2021/01/15 22:08:49;;;;;;;14.38;11.43;;;0.60;99.90;;;;;;4912897;29;20226;-83
2021/01/15 22:11:16;;;;;;;17.15;10.93;;;0.60;99.90;;;;;;4914284;29;20265;-83
2021/01/15 22:13:42;;;;;;;16.17;11.80;;;0.50;99.90;;;;;;4912237;29;20211;-83
2021/01/15 22:16:09;;;;;;;14.98;11.77;;;0.50;99.90;;;;;;4913109;29;20230;-83
2021/01/15 22:18:36;;;;;;;11.88;10.30;;;0.60;99.90;;;;;;4912583;29;20217;-83
2021/01/15 22:21:02;;;;;;;15.30;11.00;;;0.70;99.90;;;;;;4913323;29;20255;-83
2021/01/15 22:23:28;;;;;;;12.18;10.75;;;0.70;99.90;;;;;;4912620;29;20208;-83
2021/01/15 22:25:55;;;;;;;12.10;10.90;;;0.60;99.90;;;;;;4912879;29;20682;-83
2021/01/15 22:28:22;;;;;;;12.48;9.52;;;0.70;99.90;;;;;;4912780;29;20207;-83
2021/01/15 22:30:49;;;;;;;15.60;11.77;;;0.60;99.90;;;;;;4913733;29;20286;-84
2021/01/15 22:33:17;;;;;;;12.55;10.10;;;0.60;99.90;;;;;;4913261;29;20211;-83
2021/01/15 22:35:45;;;;;;;15.35;11.75;;;0.60;99.90;;;;;;4914164;29;20637;-83
2021/01/15 22:38:13;;;;;;;14.30;10.93;;;0.60;99.90;;;;;;4913466;29;20207;-84
2021/01/15 22:40:39;;;;;;;15.35;11.07;;;0.70;99.90;;;;;;4919883;29;20232;-83
2021/01/15 22:43:08;;;;;;;12.90;11.57;;;0.70;99.90;;;;;;4906254;29;20584;-82
2021/01/15 22:45:47;;;;;;;14.73;11.80;;;0.50;99.90;;;;;;4903237;29;20267;-84
2021/01/15 22:48:19;;;;;;;15.35;11.82;;;0.60;99.90;;;;;;4903866;29;20227;-88
2021/01/15 22:51:10;;;;;;;13.93;12.48;;;0.60;99.90;;;;;;4903625;29;20235;-83
2021/01/15 22:53:40;;;;;;;11.40;9.00;;;0.70;99.90;;;;;;4904121;29;20211;-85
2021/01/15 22:56:07;;;;;;;14.15;11.85;;;0.70;99.90;;;;;;4903261;29;20211;-86
2021/01/15 22:58:39;;;;;;;18.55;13.85;;;0.70;99.90;;;;;;4903221;29;20242;-85
2021/01/15 23:01:06;;;;;;;14.70;12.35;;;0.70;99.90;;;;;;4903571;29;20238;-85
2021/01/15 23:03:53;;;;;;;16.98;12.35;;;0.70;99.90;;;;;;4903459;29;20219;-86
2021/01/15 23:06:24;;;;;;;14.43;12.02;;;0.70;99.90;;;;;;4899944;29;20721;-85
2021/01/15 23:08:50;;;;;;;18.05;12.88;;;0.70;99.90;;;;;;4903163;29;20251;-85
2021/01/15 23:11:17;;;;;;;18.27;12.68;;;0.70;99.90;;;;;;4902879;29;20239;-87
2021/01/15 23:13:44;;;;;;;13.65;10.70;;;0.70;99.90;;;;;;4903077;29;20248;-83
2021/01/15 23:16:10;;;;;;;15.50;11.70;;;0.60;99.90;;;;;;4901995;29;20666;-84
2021/01/15 23:18:36;;;;;;;16.40;12.55;;;0.60;99.90;;;;;;4901306;29;20314;-85
2021/01/15 23:21:03;;;;;;;16.40;12.75;;;0.60;99.90;;;;;;4901413;29;20260;-84
2021/01/15 23:23:29;;;;;;;13.85;11.93;;;0.70;99.90;;;;;;4901670;29;20267;-86
2021/01/15 23:25:56;;;;;;;17.20;13.93;;;0.60;99.90;;;;;;4901848;29;20235;-86
2021/01/15 23:28:24;;;;;;;20.58;14.23;;;0.50;99.90;;;;;;4901700;29;20213;-86
2021/01/15 23:30:52;;;;;;;14.25;12.07;;;0.60;99.90;;;;;;4901848;29;20231;-85
2021/01/15 23:33:24;;;;;;;11.90;9.32;;;0.60;99.90;;;;;;4901805;29;20207;-84
2021/01/15 23:35:52;;;;;;;15.82;12.13;;;0.50;99.90;;;;;;4901680;29;20196;-86
2021/01/15 23:38:20;;;;;;;14.00;11.80;;;0.60;99.90;;;;;;4901621;29;20310;-82
2021/01/15 23:40:46;;;;;;;22.00;12.70;;;0.60;99.90;;;;;;4901758;29;20294;-85
2021/01/15 23:43:14;;;;;;;17.27;11.35;;;0.50;99.90;;;;;;4901120;29;20583;-85
2021/01/15 23:45:43;;;;;;;16.05;12.05;;;0.50;99.90;;;;;;4901544;29;20291;-85
2021/01/15 23:48:10;;;;;;;14.90;11.10;;;0.40;99.90;;;;;;4901916;29;20227;-86
2021/01/15 23:50:39;;;;;;;14.50;9.38;;;0.30;99.90;;;;;;4901466;29;20260;-85
2021/01/15 23:53:06;;;;;;;16.83;11.63;;;0.30;99.90;;;;;;4901735;29;20211;-85
2021/01/15 23:55:33;;;;;;;12.65;10.20;;;0.20;99.90;;;;;;4901663;29;20207;-86
2021/01/15 23:58:01;;;;;;;15.65;10.50;;;0.10;99.90;;;;;;4901523;29;20265;-85
